Time;durP1;ratioP1;P1;durP2;ratioP2;P2;SDS_P1;SDS_P2;PMS_P1;PMS_P2;Temp;Humidity;BMP_temperature;BMP_pressure;BME280_temperature;BME280_humidity;BME280_pressure;Samples;Min_cycle;Max_cycle;Signal;HPM_P1;HPM_P2
2022/08/29 00:02:00;;;;;;;17.80;16.90;;;;;;;;;;5133888;27;20649;-76
2022/08/29 00:04:27;;;;;;;16.90;16.00;;;;;;;;;;5133551;27;20253;-77
2022/08/29 00:06:54;;;;;;;17.60;16.70;;;;;;;;;;5133862;27;20224;-78
2022/08/29 00:09:20;;;;;;;17.25;16.35;;;;;;;;;;5133918;27;20199;-78
2022/08/29 00:11:47;;;;;;;17.33;16.42;;;;;;;;;;5133842;27;20279;-78
2022/08/29 00:14:14;;;;;;;17.35;16.45;;;;;;;;;;5133804;27;20224;-77
2022/08/29 00:16:41;;;;;;;17.50;16.55;;;;;;;;;;5133467;27;20236;-78
2022/08/29 00:19:09;;;;;;;17.40;16.50;;;;;;;;;;5133694;27;20196;-78
2022/08/29 00:21:36;;;;;;;16.77;15.98;;;;;;;;;;5133381;27;20232;-78
2022/08/29 00:24:03;;;;;;;16.73;15.93;;;;;;;;;;5133570;27;20249;-78
2022/08/29 00:26:30;;;;;;;19.73;18.63;;;;;;;;;;5133741;27;20272;-77
2022/08/29 00:28:56;;;;;;;16.98;16.17;;;;;;;;;;5133274;27;20188;-76
2022/08/29 00:31:23;;;;;;;16.95;16.15;;;;;;;;;;5133044;27;20255;-77
2022/08/29 00:33:50;;;;;;;18.25;17.35;;;;;;;;;;5133158;27;20212;-77
2022/08/29 00:36:19;;;;;;;16.35;15.55;;;;;;;;;;5133657;27;20199;-76
2022/08/29 00:38:45;;;;;;;16.73;15.93;;;;;;;;;;5133512;27;20257;-77
2022/08/29 00:41:12;;;;;;;16.70;15.90;;;;;;;;;;5133467;27;20224;-77
2022/08/29 00:43:39;;;;;;;16.83;16.02;;;;;;;;;;5133652;27;20193;-77
2022/08/29 00:46:11;;;;;;;16.55;15.75;;;;;;;;;;5132872;27;20631;-77
2022/08/29 00:48:38;;;;;;;16.50;15.70;;;;;;;;;;5133596;28;20816;-77
2022/08/29 00:51:06;;;;;;;16.48;15.68;;;;;;;;;;5133209;28;20671;-77
2022/08/29 00:53:37;;;;;;;16.50;15.70;;;;;;;;;;5133616;27;20616;-77
2022/08/29 00:56:05;;;;;;;16.58;15.77;;;;;;;;;;5133195;28;20624;-77
2022/08/29 00:58:35;;;;;;;16.60;15.80;;;;;;;;;;5133545;27;20200;-77
2022/08/29 01:01:02;;;;;;;16.70;15.90;;;;;;;;;;5133724;28;20223;-77
2022/08/29 01:03:31;;;;;;;16.70;15.90;;;;;;;;;;5133764;27;20214;-77
2022/08/29 01:05:58;;;;;;;16.77;15.98;;;;;;;;;;5133393;28;20650;-77
2022/08/29 01:08:25;;;;;;;16.80;16.00;;;;;;;;;;5133647;28;20731;-78
2022/08/29 01:13:39;;;;;;;16.45;15.65;;;;;;;;;;5133217;28;20558;-77
2022/08/29 01:16:06;;;;;;;16.08;15.38;;;;;;;;;;5133025;28;20234;-77
2022/08/29 01:18:34;;;;;;;16.35;15.55;;;;;;;;;;5133945;28;20189;-77
2022/08/29 01:21:04;;;;;;;16.00;15.30;;;;;;;;;;5133440;28;20306;-77
2022/08/29 01:23:34;;;;;;;16.08;15.38;;;;;;;;;;5134034;28;20272;-77
2022/08/29 01:26:03;;;;;;;19.20;17.75;;;;;;;;;;5132958;28;20643;-76
2022/08/29 01:28:31;;;;;;;18.42;17.27;;;;;;;;;;5132995;28;20188;-77
2022/08/29 01:31:00;;;;;;;16.55;15.75;;;;;;;;;;5132839;27;20650;-78
2022/08/29 01:33:37;;;;;;;16.40;15.60;;;;;;;;;;5133113;28;20644;-76
2022/08/29 01:36:04;;;;;;;16.40;15.68;;;;;;;;;;5132657;28;20189;-77
2022/08/29 01:38:31;;;;;;;16.35;15.55;;;;;;;;;;5132871;28;20279;-78
2022/08/29 01:40:58;;;;;;;16.55;15.75;;;;;;;;;;5132637;28;20315;-77
2022/08/29 01:43:28;;;;;;;16.10;15.40;;;;;;;;;;5132716;28;20192;-77
2022/08/29 01:45:54;;;;;;;16.15;15.35;;;;;;;;;;5132926;28;20253;-77
2022/08/29 01:48:22;;;;;;;16.20;15.50;;;;;;;;;;5133316;28;20235;-77
2022/08/29 01:50:49;;;;;;;16.02;15.32;;;;;;;;;;5133165;28;20196;-77
2022/08/29 01:53:16;;;;;;;16.13;15.43;;;;;;;;;;5134712;28;20227;-77
2022/08/29 01:55:43;;;;;;;16.08;15.38;;;;;;;;;;5132859;27;20235;-78
2022/08/29 01:58:09;;;;;;;16.80;16.00;;;;;;;;;;5133065;27;20249;-77
2022/08/29 02:00:38;;;;;;;16.10;15.40;;;;;;;;;;5136627;27;20610;-77
2022/08/29 02:03:04;;;;;;;16.10;15.40;;;;;;;;;;5136315;27;20224;-77
2022/08/29 02:05:31;;;;;;;16.13;15.43;;;;;;;;;;5136047;27;20283;-77
2022/08/29 02:07:59;;;;;;;15.95;15.25;;;;;;;;;;5136214;27;20200;-78
2022/08/29 02:10:26;;;;;;;16.70;15.90;;;;;;;;;;5135788;27;20193;-78
2022/08/29 02:12:53;;;;;;;16.80;16.00;;;;;;;;;;5135847;27;20232;-78
2022/08/29 02:15:20;;;;;;;16.27;15.57;;;;;;;;;;5136526;27;20672;-77
2022/08/29 02:17:48;;;;;;;15.88;15.18;;;;;;;;;;5136026;27;20735;-78
2022/08/29 02:20:15;;;;;;;15.88;15.18;;;;;;;;;;5135991;27;20193;-78
2022/08/29 02:22:42;;;;;;;15.70;15.00;;;;;;;;;;5135524;27;20277;-78
2022/08/29 02:27:51;;;;;;;15.07;14.48;;;;;;;;;;5135194;27;20192;-78
2022/08/29 02:30:18;;;;;;;15.43;14.75;;;;;;;;;;5135681;27;20189;-78
2022/08/29 02:32:45;;;;;;;15.25;14.65;;;;;;;;;;5134317;27;20227;-78
2022/08/29 02:35:13;;;;;;;15.07;14.48;;;;;;;;;;5135601;27;20224;-78
2022/08/29 02:37:40;;;;;;;15.02;14.43;;;;;;;;;;5135339;27;20675;-78
2022/08/29 02:40:08;;;;;;;15.20;14.60;;;;;;;;;;5135497;27;20418;-78
2022/08/29 02:42:35;;;;;;;15.20;14.60;;;;;;;;;;5135204;27;20724;-78
2022/08/29 02:45:02;;;;;;;14.93;14.32;;;;;;;;;;5135468;27;20319;-78
2022/08/29 02:47:29;;;;;;;14.65;14.05;;;;;;;;;;5135446;27;20196;-78
2022/08/29 02:49:55;;;;;;;13.95;13.45;;;;;;;;;;5135111;27;20745;-78
2022/08/29 02:52:24;;;;;;;14.68;14.07;;;;;;;;;;5135356;27;20220;-78
2022/08/29 02:54:50;;;;;;;14.05;13.55;;;;;;;;;;5134971;27;20238;-78
2022/08/29 02:57:17;;;;;;;14.23;13.73;;;;;;;;;;5135357;27;20196;-78
2022/08/29 02:59:44;;;;;;;14.27;13.77;;;;;;;;;;5134981;27;20208;-78
2022/08/29 03:02:10;;;;;;;14.20;13.70;;;;;;;;;;5135217;27;20256;-77
2022/08/29 03:04:37;;;;;;;14.50;14.00;;;;;;;;;;5134751;27;20292;-77
2022/08/29 03:07:05;;;;;;;14.23;13.73;;;;;;;;;;5134699;27;20280;-79
2022/08/29 03:09:33;;;;;;;14.93;14.32;;;;;;;;;;5134345;27;20192;-79
2022/08/29 03:11:59;;;;;;;14.15;13.60;;;;;;;;;;5134866;27;20242;-78
2022/08/29 03:14:26;;;;;;;14.30;13.80;;;;;;;;;;5134919;27;20611;-78
2022/08/29 03:16:53;;;;;;;14.43;13.82;;;;;;;;;;5134500;27;20192;-78
2022/08/29 03:19:20;;;;;;;14.73;14.13;;;;;;;;;;5134809;27;20209;-78
2022/08/29 03:21:47;;;;;;;15.10;14.50;;;;;;;;;;5134624;27;20238;-78
2022/08/29 03:24:14;;;;;;;15.10;14.50;;;;;;;;;;5134335;27;20211;-78
2022/08/29 03:26:42;;;;;;;15.05;14.45;;;;;;;;;;5134326;27;20196;-78
2022/08/29 03:29:09;;;;;;;14.93;14.32;;;;;;;;;;5134673;27;20254;-78
2022/08/29 03:31:35;;;;;;;14.88;14.27;;;;;;;;;;5134050;27;20264;-78
2022/08/29 03:34:03;;;;;;;14.82;14.23;;;;;;;;;;5134253;27;20656;-78
2022/08/29 03:36:31;;;;;;;14.80;14.20;;;;;;;;;;5134433;27;20199;-78
2022/08/29 03:38:57;;;;;;;14.75;14.15;;;;;;;;;;5134385;27;20200;-78
2022/08/29 03:41:25;;;;;;;15.05;14.45;;;;;;;;;;5134169;27;20316;-78
2022/08/29 03:43:55;;;;;;;15.15;14.55;;;;;;;;;;5134220;27;20231;-78
2022/08/29 03:46:22;;;;;;;15.07;14.48;;;;;;;;;;5134297;27;20566;-78
2022/08/29 03:48:49;;;;;;;15.15;14.55;;;;;;;;;;5134165;27;20196;-79
2022/08/29 03:51:16;;;;;;;15.65;14.95;;;;;;;;;;5133884;27;20231;-78
2022/08/29 03:53:44;;;;;;;15.23;14.63;;;;;;;;;;5133740;27;20245;-78
2022/08/29 03:56:11;;;;;;;15.18;14.57;;;;;;;;;;5134075;27;20192;-78
2022/08/29 03:58:38;;;;;;;14.90;14.30;;;;;;;;;;5134044;27;20208;-78
2022/08/29 04:01:06;;;;;;;14.60;14.00;;;;;;;;;;5133889;27;20228;-78
2022/08/29 04:03:33;;;;;;;13.88;13.38;;;;;;;;;;5133714;27;20228;-78
2022/08/29 04:06:00;;;;;;;13.95;13.45;;;;;;;;;;5133838;27;20291;-78
2022/08/29 04:08:26;;;;;;;13.85;13.35;;;;;;;;;;5134016;27;20555;-77
2022/08/29 04:10:53;;;;;;;13.70;13.20;;;;;;;;;;5133442;27;20227;-78
2022/08/29 04:13:20;;;;;;;13.90;13.40;;;;;;;;;;5133735;27;20204;-78
2022/08/29 04:15:47;;;;;;;13.50;13.00;;;;;;;;;;5133776;27;20219;-78
2022/08/29 04:18:16;;;;;;;13.57;13.07;;;;;;;;;;5133378;27;20283;-78
2022/08/29 04:20:44;;;;;;;13.70;13.20;;;;;;;;;;5133074;27;20241;-77
2022/08/29 04:23:11;;;;;;;13.77;13.27;;;;;;;;;;5133642;27;20223;-77
2022/08/29 04:25:38;;;;;;;17.30;15.95;;;;;;;;;;5133600;27;20292;-79
2022/08/29 04:28:06;;;;;;;13.73;13.23;;;;;;;;;;5133278;27;20287;-79
2022/08/29 04:30:33;;;;;;;13.98;13.48;;;;;;;;;;5133458;27;20223;-79
2022/08/29 04:32:59;;;;;;;14.35;13.75;;;;;;;;;;5133253;27;20228;-79
2022/08/29 04:35:28;;;;;;;14.52;13.93;;;;;;;;;;5133431;27;20192;-79
2022/08/29 04:37:54;;;;;;;15.20;14.60;;;;;;;;;;5133655;27;20261;-78
2022/08/29 04:40:22;;;;;;;16.27;15.57;;;;;;;;;;5133392;27;20231;-79
2022/08/29 04:42:49;;;;;;;16.75;15.95;;;;;;;;;;5133276;27;20232;-78
2022/08/29 04:45:18;;;;;;;17.13;16.33;;;;;;;;;;5133035;27;20235;-79
2022/08/29 04:47:45;;;;;;;17.75;16.85;;;;;;;;;;5133538;28;20196;-79
2022/08/29 04:50:13;;;;;;;17.95;17.05;;;;;;;;;;5132978;28;20227;-79
2022/08/29 04:52:42;;;;;;;18.35;17.42;;;;;;;;;;5133244;28;20295;-79
2022/08/29 04:55:10;;;;;;;17.65;16.75;;;;;;;;;;5132921;28;20188;-79
2022/08/29 04:57:37;;;;;;;17.70;16.70;;;;;;;;;;5132993;27;20228;-79
2022/08/29 05:00:05;;;;;;;17.20;16.30;;;;;;;;;;5132850;28;20198;-79
2022/08/29 05:02:31;;;;;;;17.50;16.58;;;;;;;;;;5133057;28;20228;-79
2022/08/29 05:04:58;;;;;;;16.98;16.08;;;;;;;;;;5132739;28;20249;-79
2022/08/29 05:07:26;;;;;;;17.20;16.30;;;;;;;;;;5132849;28;20650;-78
2022/08/29 05:09:57;;;;;;;16.13;15.32;;;;;;;;;;5132775;28;20259;-79
2022/08/29 05:12:24;;;;;;;28.25;25.27;;;;;;;;;;5133044;28;20185;-81
2022/08/29 05:14:51;;;;;;;15.75;14.95;;;;;;;;;;5133059;28;20200;-80
2022/08/29 05:17:18;;;;;;;15.60;14.90;;;;;;;;;;5132688;28;20188;-80
2022/08/29 05:19:44;;;;;;;15.55;14.77;;;;;;;;;;5132985;28;20203;-80
2022/08/29 05:22:13;;;;;;;15.60;14.90;;;;;;;;;;5132567;28;20708;-80
2022/08/29 05:24:39;;;;;;;16.20;15.43;;;;;;;;;;5132738;28;20239;-80
2022/08/29 05:27:09;;;;;;;16.23;15.43;;;;;;;;;;5132894;28;20231;-79
2022/08/29 05:29:38;;;;;;;16.13;15.32;;;;;;;;;;5133440;28;20570;-79
2022/08/29 05:32:05;;;;;;;16.15;15.45;;;;;;;;;;5132918;27;20235;-79
2022/08/29 05:34:33;;;;;;;15.82;15.13;;;;;;;;;;5136483;27;20645;-79
2022/08/29 05:36:59;;;;;;;16.20;15.48;;;;;;;;;;5136561;27;20253;-80
2022/08/29 05:39:26;;;;;;;15.45;14.75;;;;;;;;;;5136426;27;20279;-80
2022/08/29 05:41:54;;;;;;;16.13;15.32;;;;;;;;;;5136693;27;20295;-80
2022/08/29 05:44:22;;;;;;;18.63;17.40;;;;;;;;;;5136657;27;20224;-80
2022/08/29 05:46:49;;;;;;;17.23;16.33;;;;;;;;;;5136333;27;20196;-80
2022/08/29 05:49:16;;;;;;;17.75;16.85;;;;;;;;;;5136578;27;20193;-77
2022/08/29 05:51:43;;;;;;;17.33;16.42;;;;;;;;;;5136502;27;20567;-80
2022/08/29 05:54:09;;;;;;;17.58;16.63;;;;;;;;;;5136145;27;20677;-80
2022/08/29 05:56:36;;;;;;;16.67;15.77;;;;;;;;;;5136349;27;20242;-80
2022/08/29 05:59:03;;;;;;;16.90;16.00;;;;;;;;;;5136053;27;20221;-78
2022/08/29 06:01:32;;;;;;;16.58;15.77;;;;;;;;;;5136323;27;20201;-80
2022/08/29 06:04:00;;;;;;;16.98;16.08;;;;;;;;;;5135939;27;20224;-80
2022/08/29 06:06:27;;;;;;;17.05;16.15;;;;;;;;;;5135933;27;20197;-80
2022/08/29 06:08:55;;;;;;;17.20;16.30;;;;;;;;;;5135854;27;20204;-81
2022/08/29 06:11:23;;;;;;;17.42;16.42;;;;;;;;;;5135810;27;20743;-80
2022/08/29 06:13:49;;;;;;;17.40;16.40;;;;;;;;;;5135847;27;20375;-79
2022/08/29 06:16:17;;;;;;;17.75;16.75;;;;;;;;;;5136068;27;20200;-80
2022/08/29 06:18:46;;;;;;;17.85;16.85;;;;;;;;;;5135697;27;20627;-80
2022/08/29 06:21:12;;;;;;;17.75;16.75;;;;;;;;;;5135585;27;20196;-80
2022/08/29 06:23:40;;;;;;;17.88;16.88;;;;;;;;;;5135603;27;20767;-80
2022/08/29 06:26:07;;;;;;;17.50;16.50;;;;;;;;;;5135788;27;20243;-79
2022/08/29 06:28:35;;;;;;;17.30;16.33;;;;;;;;;;5135543;27;20257;-80
2022/08/29 06:31:05;;;;;;;17.30;16.33;;;;;;;;;;5135334;27;20193;-80
2022/08/29 06:33:32;;;;;;;16.92;16.02;;;;;;;;;;5135734;27;20241;-80
2022/08/29 06:36:00;;;;;;;17.30;16.40;;;;;;;;;;5135674;27;20228;-79
2022/08/29 06:38:27;;;;;;;17.58;16.58;;;;;;;;;;5135261;27;20228;-80
2022/08/29 06:40:53;;;;;;;17.60;16.60;;;;;;;;;;5135312;27;20670;-80
2022/08/29 06:43:21;;;;;;;17.45;16.45;;;;;;;;;;5135320;27;20232;-80
2022/08/29 06:45:48;;;;;;;17.35;16.40;;;;;;;;;;5134506;27;20193;-80
2022/08/29 06:48:15;;;;;;;17.65;16.65;;;;;;;;;;5135462;27;20283;-80
2022/08/29 06:50:41;;;;;;;17.30;16.38;;;;;;;;;;5135069;27;20195;-80
2022/08/29 06:53:10;;;;;;;17.52;16.52;;;;;;;;;;5135339;27;20257;-77
2022/08/29 06:55:37;;;;;;;19.20;17.90;;;;;;;;;;5134960;27;20200;-77
2022/08/29 06:58:04;;;;;;;17.35;16.45;;;;;;;;;;5135284;27;20192;-79
2022/08/29 07:00:31;;;;;;;17.70;16.70;;;;;;;;;;5135231;27;20279;-77
2022/08/29 07:02:57;;;;;;;18.60;17.60;;;;;;;;;;5134768;27;20224;-80
2022/08/29 07:05:24;;;;;;;17.80;16.80;;;;;;;;;;5135064;27;20580;-79
2022/08/29 07:07:51;;;;;;;18.10;17.10;;;;;;;;;;5134633;27;20189;-80
2022/08/29 07:10:19;;;;;;;18.65;17.55;;;;;;;;;;5135277;27;20193;-80
2022/08/29 07:12:46;;;;;;;18.75;17.55;;;;;;;;;;5135017;27;20653;-79
2022/08/29 07:15:13;;;;;;;18.90;17.70;;;;;;;;;;5134603;27;20245;-80
2022/08/29 07:17:40;;;;;;;19.40;18.10;;;;;;;;;;5134932;27;20275;-80
2022/08/29 07:20:08;;;;;;;19.60;18.30;;;;;;;;;;5134813;27;20227;-78
2022/08/29 07:22:35;;;;;;;19.83;18.52;;;;;;;;;;5134432;27;20307;-80
2022/08/29 07:25:02;;;;;;;19.23;18.02;;;;;;;;;;5134676;27;20634;-79
2022/08/29 07:27:30;;;;;;;19.50;18.25;;;;;;;;;;5134406;27;20673;-79
2022/08/29 07:29:57;;;;;;;19.50;18.20;;;;;;;;;;5134624;27;20273;-78
2022/08/29 07:32:23;;;;;;;19.45;18.25;;;;;;;;;;5133981;27;20277;-77
2022/08/29 07:34:50;;;;;;;18.95;17.75;;;;;;;;;;5134799;27;20193;-79
2022/08/29 07:37:17;;;;;;;18.77;17.58;;;;;;;;;;5134110;27;20249;-79
2022/08/29 07:39:43;;;;;;;18.80;17.60;;;;;;;;;;5134409;27;20280;-79
2022/08/29 07:42:10;;;;;;;18.65;17.45;;;;;;;;;;5134059;27;20283;-79
2022/08/29 07:44:38;;;;;;;19.40;18.08;;;;;;;;;;5134292;27;20196;-76
2022/08/29 07:47:05;;;;;;;19.27;18.08;;;;;;;;;;5134426;27;20613;-77
2022/08/29 07:49:32;;;;;;;19.10;17.90;;;;;;;;;;5134450;27;20196;-80
2022/08/29 07:51:59;;;;;;;18.90;17.70;;;;;;;;;;5134191;27;20211;-78
2022/08/29 07:54:27;;;;;;;18.92;17.73;;;;;;;;;;5133861;27;20287;-79
2022/08/29 07:56:53;;;;;;;18.73;17.52;;;;;;;;;;5134026;27;20224;-78
2022/08/29 07:59:21;;;;;;;18.98;17.67;;;;;;;;;;5133742;27;20665;-77
2022/08/29 08:01:50;;;;;;;18.58;17.38;;;;;;;;;;5133645;27;20752;-78
2022/08/29 08:04:16;;;;;;;18.90;17.70;;;;;;;;;;5134002;27;20256;-77
2022/08/29 08:06:44;;;;;;;18.77;17.58;;;;;;;;;;5133544;27;20222;-78
2022/08/29 08:09:12;;;;;;;18.92;17.73;;;;;;;;;;5133590;27;20200;-79
2022/08/29 08:11:40;;;;;;;19.17;17.88;;;;;;;;;;5133962;27;20200;-78
2022/08/29 08:14:07;;;;;;;19.60;18.30;;;;;;;;;;5133712;27;20188;-79
2022/08/29 08:16:33;;;;;;;19.63;18.33;;;;;;;;;;5133492;27;20235;-78
2022/08/29 08:19:02;;;;;;;19.23;17.92;;;;;;;;;;5133815;27;20188;-77
2022/08/29 08:21:28;;;;;;;19.20;17.90;;;;;;;;;;5133747;27;20271;-80
2022/08/29 08:23:55;;;;;;;18.73;17.42;;;;;;;;;;5133585;27;20230;-77
2022/08/29 08:26:22;;;;;;;18.98;17.67;;;;;;;;;;5133281;27;20292;-80
2022/08/29 08:28:49;;;;;;;27.75;18.42;;;;;;;;;;5133212;27;20697;-78
2022/08/29 08:31:16;;;;;;;18.90;17.60;;;;;;;;;;5133380;27;20264;-81
2022/08/29 08:33:44;;;;;;;18.70;17.50;;;;;;;;;;5133811;27;20237;-78
2022/08/29 08:36:14;;;;;;;18.52;17.30;;;;;;;;;;5133173;27;20265;-77
2022/08/29 08:38:41;;;;;;;19.20;17.90;;;;;;;;;;5133441;27;20638;-78
2022/08/29 08:41:16;;;;;;;18.60;17.40;;;;;;;;;;5132809;27;20654;-78
2022/08/29 08:43:47;;;;;;;19.20;17.90;;;;;;;;;;5133310;27;20233;-80
2022/08/29 08:46:13;;;;;;;19.17;17.88;;;;;;;;;;5133505;28;20184;-79
2022/08/29 08:48:40;;;;;;;18.90;17.60;;;;;;;;;;5133048;28;20269;-77
2022/08/29 08:51:09;;;;;;;19.25;17.95;;;;;;;;;;5133584;28;20192;-79
2022/08/29 08:53:39;;;;;;;19.33;18.02;;;;;;;;;;5133682;28;20196;-77
2022/08/29 08:56:11;;;;;;;19.13;17.83;;;;;;;;;;5133732;28;20197;-78
2022/08/29 08:58:42;;;;;;;19.48;18.08;;;;;;;;;;5133179;27;20188;-79
2022/08/29 09:01:14;;;;;;;19.00;17.65;;;;;;;;;;5132957;27;20227;-78
2022/08/29 09:03:50;;;;;;;21.77;20.17;;;;;;;;;;5132915;28;20223;-78
2022/08/29 09:06:21;;;;;;;19.23;17.83;;;;;;;;;;5132844;28;20583;-80
2022/08/29 09:08:52;;;;;;;20.17;18.58;;;;;;;;;;5136430;27;20568;-80
2022/08/29 09:11:25;;;;;;;18.98;17.67;;;;;;;;;;5137117;27;20188;-78
2022/08/29 09:13:56;;;;;;;20.10;18.60;;;;;;;;;;5136705;27;20192;-82
2022/08/29 09:16:25;;;;;;;19.50;18.10;;;;;;;;;;5137253;27;20335;-76
2022/08/29 09:18:52;;;;;;;19.73;18.33;;;;;;;;;;5137217;27;20192;-75
2022/08/29 09:21:21;;;;;;;19.55;18.15;;;;;;;;;;5137960;27;20228;-77
2022/08/29 09:23:50;;;;;;;19.52;18.13;;;;;;;;;;5136737;27;20224;-76
2022/08/29 09:26:17;;;;;;;18.85;17.55;;;;;;;;;;5137030;27;20225;-79
2022/08/29 09:28:44;;;;;;;18.95;17.65;;;;;;;;;;5136649;27;20283;-76
2022/08/29 09:31:16;;;;;;;18.95;17.65;;;;;;;;;;5136761;27;20702;-79
2022/08/29 09:33:44;;;;;;;19.00;17.70;;;;;;;;;;5136943;27;20189;-77
2022/08/29 09:36:12;;;;;;;19.20;17.90;;;;;;;;;;5136475;27;20292;-76
2022/08/29 09:38:39;;;;;;;19.40;18.05;;;;;;;;;;5136750;27;20228;-78
2022/08/29 09:41:09;;;;;;;18.85;17.55;;;;;;;;;;5136471;27;20741;-75
2022/08/29 09:43:46;;;;;;;18.95;17.65;;;;;;;;;;5136468;27;20316;-77
2022/08/29 09:46:17;;;;;;;19.15;17.85;;;;;;;;;;5136403;27;20184;-76
2022/08/29 09:48:45;;;;;;;19.00;17.70;;;;;;;;;;5136542;27;20229;-76
2022/08/29 09:51:13;;;;;;;19.15;17.85;;;;;;;;;;5136565;27;20201;-76
2022/08/29 09:53:40;;;;;;;19.42;18.05;;;;;;;;;;5136183;27;20662;-76
2022/08/29 09:56:12;;;;;;;19.60;18.20;;;;;;;;;;5136163;27;20634;-76
2022/08/29 09:58:41;;;;;;;19.23;17.83;;;;;;;;;;5136451;27;20241;-78
2022/08/29 10:01:09;;;;;;;19.05;17.75;;;;;;;;;;5136322;27;20203;-77
2022/08/29 10:03:38;;;;;;;19.38;18.02;;;;;;;;;;5136269;27;20597;-77
2022/08/29 10:06:06;;;;;;;19.95;18.55;;;;;;;;;;5136277;27;20243;-76
2022/08/29 10:08:34;;;;;;;19.35;18.00;;;;;;;;;;5135865;27;20197;-77
2022/08/29 10:11:03;;;;;;;19.73;18.33;;;;;;;;;;5135776;27;20565;-77
2022/08/29 10:13:35;;;;;;;19.60;18.20;;;;;;;;;;5136131;27;20228;-77
2022/08/29 10:16:06;;;;;;;19.50;18.10;;;;;;;;;;5136108;27;20242;-79
2022/08/29 10:18:41;;;;;;;19.27;17.88;;;;;;;;;;5135273;27;20253;-76
2022/08/29 10:21:14;;;;;;;19.48;18.08;;;;;;;;;;5135451;27;20184;-77
2022/08/29 10:23:46;;;;;;;19.40;18.00;;;;;;;;;;5136122;27;20213;-76
2022/08/29 10:26:20;;;;;;;19.70;18.30;;;;;;;;;;5135564;27;20670;-75
2022/08/29 10:28:50;;;;;;;19.27;17.88;;;;;;;;;;5135546;27;20685;-77
2022/08/29 10:31:20;;;;;;;19.67;18.17;;;;;;;;;;5135353;27;20228;-75
2022/08/29 10:34:00;;;;;;;19.77;18.30;;;;;;;;;;5135383;27;20241;-78
2022/08/29 10:36:29;;;;;;;19.35;17.95;;;;;;;;;;5135375;27;20192;-78
2022/08/29 10:39:00;;;;;;;19.70;18.20;;;;;;;;;;5135651;27;20206;-76
2022/08/29 10:41:31;;;;;;;20.25;18.75;;;;;;;;;;5135338;27;20220;-79
2022/08/29 10:44:07;;;;;;;21.25;19.40;;;;;;;;;;5135528;27;20247;-80
2022/08/29 10:46:39;;;;;;;20.20;18.70;;;;;;;;;;5135580;27;20188;-77
2022/08/29 10:49:10;;;;;;;20.60;19.00;;;;;;;;;;5135268;27;20224;-79
2022/08/29 10:51:41;;;;;;;20.48;18.88;;;;;;;;;;5135107;27;20185;-77
2022/08/29 10:54:13;;;;;;;20.77;19.17;;;;;;;;;;5135376;27;20185;-79
2022/08/29 10:56:42;;;;;;;20.65;19.05;;;;;;;;;;5135117;27;20237;-81
2022/08/29 10:59:17;;;;;;;21.10;19.40;;;;;;;;;;5135319;27;20275;-76
2022/08/29 11:01:46;;;;;;;20.83;19.13;;;;;;;;;;5135250;27;20191;-77
2022/08/29 11:04:17;;;;;;;21.08;19.48;;;;;;;;;;5134904;27;20817;-79
2022/08/29 11:06:47;;;;;;;20.65;19.05;;;;;;;;;;5134933;27;20642;-80
2022/08/29 11:09:16;;;;;;;20.83;19.23;;;;;;;;;;5135168;27;20610;-76
2022/08/29 11:11:46;;;;;;;21.60;19.90;;;;;;;;;;5134748;27;20741;-77
2022/08/29 11:14:21;;;;;;;21.48;19.75;;;;;;;;;;5134795;27;20236;-77
2022/08/29 11:16:50;;;;;;;22.10;20.40;;;;;;;;;;5135049;27;20631;-76
2022/08/29 11:19:20;;;;;;;21.30;19.60;;;;;;;;;;5134902;27;20196;-77
2022/08/29 11:21:51;;;;;;;23.08;20.90;;;;;;;;;;5134924;27;20192;-77
2022/08/29 11:24:19;;;;;;;21.67;19.98;;;;;;;;;;5134485;27;20216;-76
2022/08/29 11:26:52;;;;;;;22.02;20.23;;;;;;;;;;5134605;27;20192;-77
2022/08/29 11:29:26;;;;;;;22.15;20.35;;;;;;;;;;5134507;27;20192;-79
2022/08/29 11:31:56;;;;;;;21.48;19.77;;;;;;;;;;5134116;27;20292;-78
2022/08/29 11:34:34;;;;;;;21.75;20.05;;;;;;;;;;5134241;27;20224;-79
2022/08/29 11:37:18;;;;;;;22.33;20.52;;;;;;;;;;5134583;27;20180;-78
2022/08/29 11:39:50;;;;;;;22.05;20.35;;;;;;;;;;5134398;27;20332;-77
2022/08/29 11:42:18;;;;;;;21.35;19.65;;;;;;;;;;5134077;27;20192;-76
2022/08/29 11:44:48;;;;;;;22.50;20.60;;;;;;;;;;5134023;27;20319;-76
2022/08/29 11:47:32;;;;;;;22.23;20.40;;;;;;;;;;5134148;27;20203;-75
2022/08/29 11:50:02;;;;;;;21.80;20.10;;;;;;;;;;5134005;27;20192;-80
2022/08/29 11:52:30;;;;;;;21.92;20.13;;;;;;;;;;5134364;27;20185;-78
2022/08/29 11:55:17;;;;;;;22.25;20.50;;;;;;;;;;5134038;27;20200;-71
2022/08/29 11:57:46;;;;;;;21.48;19.77;;;;;;;;;;5134145;27;20223;-77
2022/08/29 12:00:28;;;;;;;22.50;20.60;;;;;;;;;;5133790;27;20211;-77
2022/08/29 12:02:55;;;;;;;22.27;20.38;;;;;;;;;;5133773;27;20758;-79
2022/08/29 12:05:40;;;;;;;21.55;19.75;;;;;;;;;;5133571;27;20224;-80
2022/08/29 12:08:12;;;;;;;21.48;19.77;;;;;;;;;;5134024;27;20196;-76
2022/08/29 12:10:50;;;;;;;21.55;19.75;;;;;;;;;;5134315;27;20188;-77
2022/08/29 12:13:45;;;;;;;21.95;20.15;;;;;;;;;;5133885;27;20184;-76
2022/08/29 12:16:15;;;;;;;20.88;19.13;;;;;;;;;;5133413;27;20196;-81
2022/08/29 12:18:46;;;;;;;20.92;19.23;;;;;;;;;;5133809;27;20223;-77
2022/08/29 12:21:43;;;;;;;21.80;20.00;;;;;;;;;;5133808;27;20196;-77
2022/08/29 12:24:24;;;;;;;20.90;19.30;;;;;;;;;;5133384;27;20678;-77
2022/08/29 12:26:51;;;;;;;21.20;19.50;;;;;;;;;;5133280;27;20219;-78
2022/08/29 12:29:20;;;;;;;21.00;19.30;;;;;;;;;;5133588;27;20696;-76
2022/08/29 12:32:00;;;;;;;22.23;20.35;;;;;;;;;;5133366;27;20273;-76
2022/08/29 12:34:39;;;;;;;20.90;19.23;;;;;;;;;;5133222;27;20275;-78
2022/08/29 12:37:24;;;;;;;35.50;32.50;;;;;;;;;;5133162;27;20184;-77
2022/08/29 12:39:57;;;;;;;21.27;19.63;;;;;;;;;;5133670;27;20219;-77
2022/08/29 12:42:28;;;;;;;21.02;19.42;;;;;;;;;;5132889;27;20196;-77
2022/08/29 12:44:59;;;;;;;20.92;19.33;;;;;;;;;;5133371;27;20248;-78
2022/08/29 12:47:28;;;;;;;21.17;19.48;;;;;;;;;;5133355;27;20196;-76
2022/08/29 12:49:57;;;;;;;21.73;20.02;;;;;;;;;;5133143;28;20733;-78
2022/08/29 12:52:25;;;;;;;21.92;20.23;;;;;;;;;;5132967;28;20204;-76
2022/08/29 12:54:53;;;;;;;23.55;21.38;;;;;;;;;;5133055;27;20567;-76
2022/08/29 12:57:21;;;;;;;21.63;19.92;;;;;;;;;;5133485;28;20197;-75
2022/08/29 12:59:48;;;;;;;21.80;20.00;;;;;;;;;;5132866;28;20692;-75
2022/08/29 13:02:25;;;;;;;20.90;19.30;;;;;;;;;;5133212;28;20196;-73
2022/08/29 13:04:54;;;;;;;21.15;19.55;;;;;;;;;;5132728;28;20224;-75
2022/08/29 13:07:21;;;;;;;20.90;19.30;;;;;;;;;;5132891;27;20653;-76
2022/08/29 13:09:51;;;;;;;20.60;19.00;;;;;;;;;;5132736;28;20673;-76
2022/08/29 13:12:20;;;;;;;21.13;19.52;;;;;;;;;;5133154;28;20275;-74
2022/08/29 13:14:49;;;;;;;20.65;19.05;;;;;;;;;;5133261;27;20200;-74
2022/08/29 13:17:17;;;;;;;21.30;19.70;;;;;;;;;;5132758;28;20626;-74
2022/08/29 13:19:58;;;;;;;21.10;19.50;;;;;;;;;;5132720;28;20647;-73
2022/08/29 13:22:26;;;;;;;20.63;19.13;;;;;;;;;;5132456;28;20228;-73
2022/08/29 13:25:01;;;;;;;21.45;19.85;;;;;;;;;;5132667;28;20276;-73
2022/08/29 13:27:28;;;;;;;20.27;18.77;;;;;;;;;;5132990;28;20284;-75
2022/08/29 13:29:59;;;;;;;21.38;19.73;;;;;;;;;;5132683;28;20366;-78
2022/08/29 13:32:26;;;;;;;21.40;19.80;;;;;;;;;;5132506;28;20269;-76
2022/08/29 13:35:00;;;;;;;21.27;19.58;;;;;;;;;;5132954;27;20224;-76
2022/08/29 13:37:29;;;;;;;22.52;20.73;;;;;;;;;;5132860;28;20287;-81
2022/08/29 13:39:56;;;;;;;21.20;19.70;;;;;;;;;;5132570;28;20196;-79
2022/08/29 13:42:26;;;;;;;21.08;19.58;;;;;;;;;;5132799;28;20203;-74
2022/08/29 13:45:13;;;;;;;21.70;20.20;;;;;;;;;;5132751;28;20228;-73
2022/08/29 13:47:42;;;;;;;20.80;19.30;;;;;;;;;;5132797;28;20192;-79
2022/08/29 13:50:10;;;;;;;20.58;19.17;;;;;;;;;;5133040;28;20276;-72
2022/08/29 13:52:38;;;;;;;20.30;18.92;;;;;;;;;;5132665;28;20197;-74
2022/08/29 13:55:06;;;;;;;21.33;19.67;;;;;;;;;;5136228;27;20254;-76
2022/08/29 13:57:33;;;;;;;21.05;19.52;;;;;;;;;;5136405;27;20192;-75
2022/08/29 14:00:01;;;;;;;20.75;19.35;;;;;;;;;;5136083;27;20224;-78
2022/08/29 14:02:28;;;;;;;20.88;19.38;;;;;;;;;;5136436;27;20620;-74
2022/08/29 14:04:54;;;;;;;20.65;19.25;;;;;;;;;;5135928;27;20224;-75
2022/08/29 14:07:23;;;;;;;20.70;19.40;;;;;;;;;;5136295;27;20196;-76
2022/08/29 14:09:51;;;;;;;20.33;19.02;;;;;;;;;;5136203;27;20608;-71
2022/08/29 14:12:19;;;;;;;22.20;20.60;;;;;;;;;;5135907;27;20659;-72
